createdAt,value
2019-06-08T00:00:42.575Z,22.2
2019-06-08T00:01:44.738Z,22.2
2019-06-08T00:02:47.154Z,22.2
2019-06-08T00:03:49.289Z,22.1
2019-06-08T00:04:51.455Z,22.1
2019-06-08T00:05:53.884Z,22.2
2019-06-08T00:06:56.315Z,22.2
2019-06-08T00:07:58.475Z,22.2
2019-06-08T00:09:00.627Z,22.2
2019-06-08T00:10:02.516Z,22.2
2019-06-08T00:11:04.960Z,22.2
2019-06-08T00:12:07.325Z,22.2
2019-06-08T00:13:09.492Z,22.2
2019-06-08T00:14:13.605Z,22.2
2019-06-08T00:15:20.247Z,22.2
2019-06-08T00:16:25.422Z,22.2
2019-06-08T00:18:32.835Z,22.2
2019-06-08T00:19:35.266Z,22.2
2019-06-08T00:20:37.700Z,22.3
2019-06-08T00:21:39.864Z,22.2
2019-06-08T00:22:42.295Z,22.3
2019-06-08T00:23:44.730Z,22.2
2019-06-08T00:24:46.872Z,22.1
2019-06-08T00:25:49.026Z,22.2
2019-06-08T00:26:51.458Z,22.3
2019-06-08T00:27:53.610Z,22.3
2019-06-08T00:28:56.042Z,22.2
2019-06-08T00:29:58.193Z,22.2
2019-06-08T00:31:00.636Z,22.3
2019-06-08T00:32:03.060Z,22.2
2019-06-08T00:33:05.493Z,22.3
2019-06-08T00:34:07.966Z,22.2
2019-06-08T00:35:09.822Z,22.3
2019-06-08T00:36:11.986Z,22.2
2019-06-08T00:37:17.170Z,22.3
2019-06-08T00:38:23.491Z,22.3
2019-06-08T00:39:27.123Z,22.3
2019-06-08T00:40:29.551Z,22.3
2019-06-08T00:41:31.978Z,22.3
2019-06-08T00:42:34.143Z,22.3
2019-06-08T00:43:36.577Z,22.3
2019-06-08T00:44:39.007Z,22.2
2019-06-08T00:45:41.431Z,22.2
2019-06-08T00:46:43.868Z,22.3
2019-06-08T00:48:51.265Z,22.3
2019-06-08T00:49:53.415Z,22.3
2019-06-08T00:50:55.317Z,22.2
2019-06-08T00:51:57.747Z,22.2
2019-06-08T00:53:00.189Z,22.3
2019-06-08T00:54:02.623Z,22.2
2019-06-08T00:55:04.786Z,22.3
2019-06-08T00:56:07.211Z,22.4
2019-06-08T00:57:09.345Z,22.3
2019-06-08T00:58:11.844Z,22.3
2019-06-08T00:59:14.273Z,22.2
2019-06-08T01:00:18.196Z,22.3
2019-06-08T01:02:29.392Z,22.3
2019-06-08T01:03:31.547Z,22.3
2019-06-08T01:04:33.976Z,22.3
2019-06-08T01:05:36.407Z,22.3
2019-06-08T01:06:38.554Z,22.3
2019-06-08T01:07:40.721Z,22.4
2019-06-08T01:08:43.153Z,22.3
2019-06-08T01:09:45.577Z,22.3
2019-06-08T01:10:48.013Z,22.3
2019-06-08T01:11:50.159Z,22.2
2019-06-08T01:12:52.639Z,22.2
2019-06-08T01:13:54.785Z,22.3
2019-06-08T01:14:56.943Z,22.3
2019-06-08T01:15:59.093Z,22.3
2019-06-08T01:17:01.303Z,22.3
2019-06-08T01:18:04.868Z,22.4
2019-06-08T01:19:07.019Z,22.3
2019-06-08T01:20:09.198Z,22.3
2019-06-08T01:21:11.325Z,22.2
2019-06-08T01:22:13.746Z,22.2
2019-06-08T01:23:16.163Z,22.3
2019-06-08T01:24:19.513Z,22.3
2019-06-08T01:25:23.942Z,22.2
2019-06-08T01:26:30.140Z,22.3
2019-06-08T01:27:32.649Z,22.3
2019-06-08T01:28:34.802Z,22.4
2019-06-08T01:29:37.233Z,22.3
2019-06-08T01:30:39.657Z,22.4
2019-06-08T01:31:41.801Z,22.4
2019-06-08T01:32:43.993Z,22.3
2019-06-08T01:33:47.024Z,22.2
2019-06-08T01:34:49.451Z,22.3
2019-06-08T01:35:51.111Z,22.3
2019-06-08T01:36:54.165Z,22.3
2019-06-08T01:37:56.595Z,22.2
2019-06-08T01:38:58.753Z,22.3
2019-06-08T01:40:00.907Z,22.3
2019-06-08T01:41:02.794Z,22.3
2019-06-08T01:42:05.242Z,22.3
2019-06-08T01:43:07.676Z,22.3
2019-06-08T01:44:10.099Z,22.3
2019-06-08T01:45:12.545Z,22.3
2019-06-08T01:46:14.981Z,22.5
2019-06-08T01:47:17.416Z,22.3
2019-06-08T01:48:22.266Z,22.4
2019-06-08T01:49:28.335Z,22.4
2019-06-08T01:50:33.711Z,22.3
2019-06-08T01:51:35.945Z,22.2
2019-06-08T01:52:38.127Z,22.3
2019-06-08T01:53:40.554Z,22.4
2019-06-08T01:54:42.703Z,22.3
2019-06-08T01:55:45.151Z,22.3
2019-06-08T01:56:47.309Z,22.4
2019-06-08T01:57:49.746Z,22.3
2019-06-08T01:58:52.175Z,22.4
2019-06-08T01:59:54.333Z,22.3
2019-06-08T02:00:56.762Z,22.4
2019-06-08T02:01:58.897Z,22.3
2019-06-08T02:03:01.311Z,22.3
2019-06-08T02:04:03.483Z,22.3
2019-06-08T02:05:05.640Z,22.4
2019-06-08T02:06:07.225Z,22.4
2019-06-08T02:07:09.093Z,22.4
2019-06-08T02:08:11.253Z,22.4
2019-06-08T02:09:13.676Z,22.3
2019-06-08T02:10:16.123Z,22.4
2019-06-08T02:11:18.543Z,22.4
2019-06-08T02:12:21.161Z,22.3
2019-06-08T02:13:23.058Z,22.3
2019-06-08T02:14:31.048Z,22.2
2019-06-08T02:15:36.083Z,22.5
2019-06-08T02:16:38.245Z,22.3
2019-06-08T02:17:40.409Z,22.4
2019-06-08T02:19:47.821Z,22.4
2019-06-08T02:20:50.245Z,22.4
2019-06-08T02:21:52.683Z,22.4
2019-06-08T02:22:55.113Z,22.3
2019-06-08T02:23:57.552Z,22.4
2019-06-08T02:24:59.977Z,22.4
2019-06-08T02:26:02.110Z,22.3
2019-06-08T02:27:04.534Z,22.3
2019-06-08T02:28:06.131Z,22.3
2019-06-08T02:29:08.309Z,22.3
2019-06-08T02:30:10.740Z,22.3
2019-06-08T02:31:13.163Z,22.4
2019-06-08T02:32:15.603Z,22.5
2019-06-08T02:33:17.761Z,22.3
2019-06-08T02:34:20.179Z,22.3
2019-06-08T02:35:22.604Z,22.3
2019-06-08T02:36:25.035Z,22.3
2019-06-08T02:37:30.697Z,22.3
2019-06-08T02:38:41.375Z,22.3
2019-06-08T02:39:43.527Z,22.4
2019-06-08T02:40:45.962Z,22.2
2019-06-08T02:41:48.122Z,22.4
2019-06-08T02:42:50.559Z,22.3
2019-06-08T02:43:52.424Z,22.3
2019-06-08T02:44:54.565Z,22.3
2019-06-08T02:45:56.990Z,22.3
2019-06-08T02:46:58.927Z,22.4
2019-06-08T02:48:01.093Z,22.4
2019-06-08T02:49:05.361Z,22.4
2019-06-08T02:50:07.544Z,22.3
2019-06-08T02:51:09.969Z,22.3
2019-06-08T02:52:12.409Z,22.4
2019-06-08T02:53:14.840Z,22.3
2019-06-08T02:54:17.035Z,22.4
2019-06-08T02:55:19.457Z,22.3
2019-06-08T02:56:21.910Z,22.5
2019-06-08T02:57:24.330Z,22.3
2019-06-08T02:58:26.294Z,22.4
2019-06-08T02:59:33.364Z,22.3
2019-06-08T03:00:43.674Z,22.4
2019-06-08T03:01:45.284Z,22.4
2019-06-08T03:02:47.170Z,22.4
2019-06-08T03:03:49.321Z,22.3
2019-06-08T03:04:51.779Z,22.3
2019-06-08T03:05:54.218Z,22.4
2019-06-08T03:06:56.650Z,22.3
2019-06-08T03:07:58.800Z,22.2
2019-06-08T03:09:00.981Z,22.3
2019-06-08T03:10:03.146Z,22.3
2019-06-08T03:11:05.304Z,22.3
2019-06-08T03:12:07.783Z,22.3
2019-06-08T03:13:09.663Z,22.2
2019-06-08T03:14:11.817Z,22.3
2019-06-08T03:15:13.970Z,22.2
2019-06-08T03:16:15.858Z,22.3
2019-06-08T03:17:17.998Z,22.2
2019-06-08T03:18:20.466Z,22.3
2019-06-08T03:19:23.686Z,22.3
2019-06-08T03:20:26.749Z,22.2
2019-06-08T03:21:29.178Z,22.2
2019-06-08T03:22:38.908Z,22.2
2019-06-08T03:23:43.996Z,22.2
2019-06-08T03:24:46.137Z,22.2
2019-06-08T03:26:52.726Z,22.2
2019-06-08T03:27:55.148Z,22.2
2019-06-08T03:28:57.042Z,22.1
2019-06-08T03:29:59.476Z,22.1
2019-06-08T03:31:01.359Z,22.1
2019-06-08T03:32:03.857Z,22.1
2019-06-08T03:33:06.323Z,22.2
2019-06-08T03:34:08.524Z,22.2
2019-06-08T03:35:10.966Z,22.2
2019-06-08T03:36:13.565Z,22.2
2019-06-08T03:37:15.445Z,22.1
2019-06-08T03:38:17.576Z,22.2
2019-06-08T03:39:19.474Z,22.2
2019-06-08T03:40:21.715Z,22.1
2019-06-08T03:41:23.859Z,22.2
2019-06-08T03:42:26.287Z,22.1
2019-06-08T03:43:28.721Z,22.2
2019-06-08T03:44:30.868Z,22.2
2019-06-08T03:45:36.212Z,22.1
2019-06-08T03:47:49.007Z,22.2
2019-06-08T03:48:51.442Z,22.2
2019-06-08T03:50:58.596Z,22.2
2019-06-08T03:52:01.029Z,22.1
2019-06-08T03:53:03.175Z,22.2
2019-06-08T03:54:05.309Z,22.2
2019-06-08T03:55:07.462Z,22
2019-06-08T03:56:09.621Z,22.2
2019-06-08T03:57:11.506Z,22.2
2019-06-08T03:58:14.036Z,22.1
2019-06-08T03:59:16.470Z,22.1
2019-06-08T04:00:18.350Z,22.2
2019-06-08T04:01:20.533Z,22.1
2019-06-08T04:02:22.958Z,22.1
2019-06-08T04:03:25.121Z,22.1
2019-06-08T04:04:27.264Z,22.1
2019-06-08T04:05:29.434Z,22.1
2019-06-08T04:06:31.865Z,22.1
2019-06-08T04:07:34.298Z,22.1
2019-06-08T04:08:40.185Z,22.1
2019-06-08T04:09:45.801Z,22.1
2019-06-08T04:10:47.778Z,22.1
2019-06-08T04:11:51.889Z,22
2019-06-08T04:12:54.303Z,22.2
2019-06-08T04:13:56.466Z,22.1
2019-06-08T04:14:58.629Z,22.2
2019-06-08T04:16:00.805Z,22.1
2019-06-08T04:17:03.234Z,22.1
2019-06-08T04:18:05.156Z,22
2019-06-08T04:19:07.314Z,22.1
2019-06-08T04:21:14.735Z,22.1
2019-06-08T04:22:16.342Z,22.1
2019-06-08T04:23:18.776Z,22.1
2019-06-08T04:24:20.924Z,22.1
2019-06-08T04:25:23.364Z,22.1
2019-06-08T04:26:25.530Z,22.1
2019-06-08T04:27:27.653Z,22.1
2019-06-08T04:28:29.801Z,22.1
2019-06-08T04:29:32.233Z,22.1
2019-06-08T04:30:34.661Z,22
2019-06-08T04:31:39.624Z,22.2
2019-06-08T04:32:49.697Z,22.1
2019-06-08T04:33:51.924Z,22.1
2019-06-08T04:34:54.367Z,22.1
2019-06-08T04:35:56.794Z,22
2019-06-08T04:36:59.225Z,22
2019-06-08T04:38:02.210Z,22.1
2019-06-08T04:39:04.094Z,22.1
2019-06-08T04:40:05.983Z,22.1
2019-06-08T04:41:08.141Z,22
2019-06-08T04:42:10.570Z,22.1
2019-06-08T04:43:12.726Z,22
2019-06-08T04:44:15.187Z,22.1
2019-06-08T04:45:17.636Z,22.1
2019-06-08T04:46:19.796Z,22.1
2019-06-08T04:47:21.685Z,22.1
2019-06-08T04:48:23.826Z,22
2019-06-08T04:49:25.966Z,22.1
2019-06-08T04:50:28.387Z,22.1
2019-06-08T04:51:30.807Z,22
2019-06-08T04:52:32.971Z,22.1
2019-06-08T04:53:35.105Z,22.1
2019-06-08T04:54:40.683Z,22
2019-06-08T04:55:49.608Z,22.1
2019-06-08T04:56:52.056Z,22.1
2019-06-08T04:57:54.484Z,22
2019-06-08T04:58:56.909Z,22
2019-06-08T04:59:58.796Z,22.1
2019-06-08T05:01:01.202Z,22
2019-06-08T05:02:02.807Z,22.1
2019-06-08T05:03:04.969Z,22.1
2019-06-08T05:04:07.391Z,22
2019-06-08T05:05:09.838Z,22.1
2019-06-08T05:06:12.271Z,22.1
2019-06-08T05:07:14.697Z,22.1
2019-06-08T05:08:16.884Z,22.1
2019-06-08T05:09:18.763Z,22
2019-06-08T05:10:21.248Z,22.1
2019-06-08T05:11:23.403Z,22
2019-06-08T05:12:25.815Z,22
2019-06-08T05:13:27.404Z,22
2019-06-08T05:14:29.826Z,21.9
2019-06-08T05:15:31.688Z,22.1
2019-06-08T05:16:34.144Z,22
2019-06-08T05:17:36.034Z,22.1
2019-06-08T05:18:43.040Z,22.1
2019-06-08T05:19:50.266Z,22.1
2019-06-08T05:20:53.524Z,22
2019-06-08T05:21:55.960Z,22.1
2019-06-08T05:22:58.380Z,22.1
2019-06-08T05:24:00.818Z,22
2019-06-08T05:25:03.242Z,22.1
2019-06-08T05:26:05.404Z,22
2019-06-08T05:27:07.833Z,22.1
2019-06-08T05:28:10.275Z,22
2019-06-08T05:29:12.698Z,22
2019-06-08T05:30:14.847Z,22.1
2019-06-08T05:31:17.273Z,22.1
2019-06-08T05:32:19.711Z,22
2019-06-08T05:33:22.177Z,22.1
2019-06-08T05:34:24.615Z,22
2019-06-08T05:35:27.076Z,22.1
2019-06-08T05:36:29.235Z,22
2019-06-08T05:37:31.666Z,22
2019-06-08T05:38:34.302Z,22.1
2019-06-08T05:39:36.738Z,22
2019-06-08T05:40:41.499Z,22.1
2019-06-08T05:41:45.747Z,22
2019-06-08T05:42:50.409Z,22
2019-06-08T05:43:52.588Z,21.9
2019-06-08T05:44:55.018Z,22.1
2019-06-08T05:45:57.176Z,21.9
2019-06-08T05:46:59.051Z,22
2019-06-08T05:48:00.912Z,22
2019-06-08T05:49:02.508Z,21.9
2019-06-08T05:50:04.682Z,22
2019-06-08T05:51:06.840Z,22
2019-06-08T05:52:08.979Z,22
2019-06-08T05:53:11.126Z,22
2019-06-08T05:54:13.548Z,22
2019-06-08T05:55:15.703Z,22.1
2019-06-08T05:56:17.871Z,22
2019-06-08T05:57:20.284Z,21.9
2019-06-08T05:58:22.181Z,22
2019-06-08T05:59:24.337Z,22
2019-06-08T06:00:26.468Z,21.9
2019-06-08T06:01:28.347Z,21.9
2019-06-08T06:02:30.767Z,22
2019-06-08T06:03:32.622Z,22
2019-06-08T06:04:35.129Z,22
2019-06-08T06:05:37.574Z,22.1
2019-06-08T06:06:42.338Z,22
2019-06-08T06:07:47.229Z,22
2019-06-08T06:08:52.215Z,22
2019-06-08T06:09:54.101Z,22
2019-06-08T06:10:56.574Z,22
2019-06-08T06:11:58.759Z,22
2019-06-08T06:13:00.644Z,22
2019-06-08T06:14:02.244Z,22.1
2019-06-08T06:15:04.673Z,22.1
2019-06-08T06:16:06.547Z,22
2019-06-08T06:17:08.970Z,22
2019-06-08T06:18:11.411Z,22.1
2019-06-08T06:19:13.848Z,22
2019-06-08T06:20:16.270Z,22
2019-06-08T06:21:18.445Z,22
2019-06-08T06:22:20.872Z,22.1
2019-06-08T06:23:23.284Z,22
2019-06-08T06:24:25.438Z,21.9
2019-06-08T06:25:27.861Z,22
2019-06-08T06:26:30.300Z,22
2019-06-08T06:27:32.474Z,21.9
2019-06-08T06:28:34.361Z,21.9
2019-06-08T06:29:36.793Z,22
2019-06-08T06:30:39.314Z,22
2019-06-08T06:31:43.584Z,22
2019-06-08T06:32:50.182Z,22
2019-06-08T06:33:53.856Z,22
2019-06-08T06:34:56.293Z,22
2019-06-08T06:35:58.459Z,22
2019-06-08T06:37:00.378Z,22
2019-06-08T06:38:02.803Z,21.9
2019-06-08T06:39:05.074Z,22
2019-06-08T06:40:07.518Z,22
2019-06-08T06:41:09.693Z,21.9
2019-06-08T06:42:12.136Z,22
2019-06-08T06:43:14.018Z,22
2019-06-08T06:44:16.173Z,22
2019-06-08T06:45:18.605Z,21.9
2019-06-08T06:46:20.494Z,22
2019-06-08T06:47:22.652Z,21.9
2019-06-08T06:48:25.129Z,21.9
2019-06-08T06:49:27.293Z,22
2019-06-08T06:50:29.714Z,22
2019-06-08T06:52:36.844Z,22.1
2019-06-08T06:53:38.438Z,22
2019-06-08T06:54:41.080Z,21.8
2019-06-08T06:55:46.825Z,22
2019-06-08T06:56:51.779Z,22
2019-06-08T06:57:55.679Z,22
2019-06-08T06:58:58.114Z,22.1
2019-06-08T07:00:00.857Z,22
2019-06-08T07:01:04.059Z,21.9
2019-06-08T07:02:06.250Z,21.9
2019-06-08T07:03:08.726Z,22
2019-06-08T07:04:10.881Z,22.1
2019-06-08T07:05:13.024Z,22
2019-06-08T07:06:14.919Z,22
2019-06-08T07:07:17.083Z,22
2019-06-08T07:08:19.513Z,22
2019-06-08T07:09:21.619Z,22
2019-06-08T07:10:24.130Z,22.1
2019-06-08T07:11:26.576Z,22
2019-06-08T07:12:29.014Z,22
2019-06-08T07:13:31.451Z,22
2019-06-08T07:14:33.885Z,22
2019-06-08T07:16:41.046Z,22
2019-06-08T07:17:43.481Z,22
2019-06-08T07:18:50.131Z,22
2019-06-08T07:19:55.466Z,22
2019-06-08T07:20:59.134Z,22
2019-06-08T07:22:01.024Z,22
2019-06-08T07:23:03.459Z,22
2019-06-08T07:24:05.897Z,22
2019-06-08T07:25:08.046Z,22
2019-06-08T07:26:10.202Z,21.9
2019-06-08T07:27:12.753Z,22
2019-06-08T07:28:14.910Z,21.9
2019-06-08T07:29:16.805Z,21.9
2019-06-08T07:30:18.439Z,22.1
2019-06-08T07:31:20.917Z,21.9
2019-06-08T07:32:23.340Z,22
2019-06-08T07:33:25.478Z,22
2019-06-08T07:34:27.916Z,22
2019-06-08T07:35:30.091Z,22
2019-06-08T07:36:32.529Z,21.9
2019-06-08T07:37:34.955Z,21.9
2019-06-08T07:38:37.132Z,22
2019-06-08T07:39:39.576Z,22.1
2019-06-08T07:40:42.017Z,22
2019-06-08T07:41:44.183Z,22
2019-06-08T07:42:47.621Z,22
2019-06-08T07:43:52.833Z,22
2019-06-08T07:44:57.189Z,22
2019-06-08T07:46:01.567Z,21.9
2019-06-08T07:47:03.998Z,22
2019-06-08T07:48:06.164Z,22
2019-06-08T07:49:08.332Z,21.9
2019-06-08T07:50:10.514Z,21.9
2019-06-08T07:51:12.932Z,21.9
2019-06-08T07:52:15.091Z,22
2019-06-08T07:53:17.852Z,22
2019-06-08T07:54:20.274Z,21.9
2019-06-08T07:55:22.144Z,22
2019-06-08T07:56:24.522Z,21.9
2019-06-08T07:57:27.076Z,22
2019-06-08T07:58:29.503Z,22
2019-06-08T07:59:32.151Z,22
2019-06-08T08:00:34.575Z,22
2019-06-08T08:01:37.009Z,22
2019-06-08T08:02:39.172Z,22
2019-06-08T08:03:41.808Z,21.9
2019-06-08T08:04:44.231Z,22
2019-06-08T08:05:48.085Z,21.9
2019-06-08T08:06:56.565Z,21.9
2019-06-08T08:08:00.253Z,22
2019-06-08T08:09:02.137Z,22
2019-06-08T08:10:04.635Z,22
2019-06-08T08:11:07.398Z,22
2019-06-08T08:13:14.831Z,22
2019-06-08T08:14:16.962Z,21.9
2019-06-08T08:15:19.242Z,22
2019-06-08T08:16:21.751Z,22
2019-06-08T08:17:23.378Z,21.9
2019-06-08T08:18:25.529Z,21.9
2019-06-08T08:19:27.410Z,21.9
2019-06-08T08:20:29.860Z,21.9
2019-06-08T08:21:31.761Z,22
2019-06-08T08:22:34.181Z,22
2019-06-08T08:23:41.703Z,21.9
2019-06-08T08:24:44.057Z,22
2019-06-08T08:25:53.060Z,22
2019-06-08T08:28:02.018Z,21.9
2019-06-08T08:29:04.626Z,22
2019-06-08T08:30:11.539Z,21.9
2019-06-08T08:31:18.393Z,22
2019-06-08T08:32:21.380Z,22
2019-06-08T08:33:23.806Z,21.9
2019-06-08T08:34:30.708Z,22
2019-06-08T08:35:33.548Z,22
2019-06-08T08:37:40.899Z,22
2019-06-08T08:38:42.766Z,21.9
2019-06-08T08:39:47.186Z,21.9
2019-06-08T08:40:56.397Z,22
2019-06-08T08:43:05.419Z,21.9
2019-06-08T08:44:13.079Z,21.9
2019-06-08T08:45:18.119Z,21.9
2019-06-08T08:46:20.984Z,22
2019-06-08T08:47:23.415Z,22
2019-06-08T08:49:30.537Z,21.9
2019-06-08T08:50:32.977Z,21.9
2019-06-08T08:51:37.622Z,21.9
2019-06-08T08:52:41.584Z,22
2019-06-08T08:53:43.999Z,21.9
2019-06-08T08:54:47.994Z,21.9
2019-06-08T08:55:54.302Z,21.9
2019-06-08T08:58:08.192Z,22
2019-06-08T08:59:11.548Z,22
2019-06-08T09:00:13.167Z,22
2019-06-08T09:02:21.629Z,22
2019-06-08T09:04:28.791Z,22
2019-06-08T09:05:31.573Z,22
2019-06-08T09:06:34.002Z,21.9
2019-06-08T09:07:40.925Z,21.9
2019-06-08T09:08:43.373Z,22
2019-06-08T09:09:48.046Z,21.9
2019-06-08T09:10:53.386Z,22
2019-06-08T09:15:18.979Z,21.9
2019-06-08T09:16:21.778Z,21.9
2019-06-08T09:17:24.210Z,21.8
2019-06-08T09:18:30.858Z,22
2019-06-08T09:19:32.737Z,21.9
2019-06-08T09:20:34.898Z,21.9
2019-06-08T09:21:40.578Z,21.9
2019-06-08T09:23:49.215Z,21.9
2019-06-08T09:27:07.758Z,21.9
2019-06-08T09:28:11.265Z,21.9
2019-06-08T09:29:13.961Z,21.9
2019-06-08T09:31:21.097Z,21.9
2019-06-08T09:32:23.267Z,21.9
2019-06-08T09:33:25.733Z,21.9
2019-06-08T09:34:31.601Z,21.9
2019-06-08T09:35:34.023Z,22
2019-06-08T09:36:41.333Z,22
2019-06-08T09:37:43.768Z,21.9
2019-06-08T09:38:48.468Z,21.9
2019-06-08T09:42:05.957Z,22
2019-06-08T09:43:13.803Z,22
2019-06-08T09:44:22.187Z,21.9
2019-06-08T09:45:25.254Z,21.9
2019-06-08T09:46:31.684Z,21.9
2019-06-08T09:47:33.846Z,21.8
2019-06-08T09:48:40.806Z,21.8
2019-06-08T09:49:42.962Z,22
2019-06-08T09:50:45.137Z,22
2019-06-08T09:51:53.764Z,21.9
2019-06-08T09:56:11.999Z,21.9
2019-06-08T09:57:13.897Z,21.9
2019-06-08T09:59:21.284Z,21.9
2019-06-08T10:01:29.256Z,22
2019-06-08T10:02:32.075Z,22
2019-06-08T10:03:34.563Z,21.8
2019-06-08T10:04:41.462Z,21.9
2019-06-08T10:05:43.336Z,21.8
2019-06-08T10:07:50.743Z,21.9
2019-06-08T10:08:56.223Z,22
2019-06-08T10:12:11.667Z,21.9
2019-06-08T10:13:13.892Z,21.9
2019-06-08T10:15:21.325Z,22
2019-06-08T10:16:23.497Z,21.9
2019-06-08T10:17:30.423Z,21.9
2019-06-08T10:18:32.889Z,21.9
2019-06-08T10:19:35.316Z,21.9
2019-06-08T10:20:38.677Z,22
2019-06-08T10:23:51.085Z,22
2019-06-08T10:24:55.299Z,21.9
2019-06-08T10:26:04.683Z,21.9
2019-06-08T10:29:19.068Z,22
2019-06-08T10:30:21.535Z,21.9
2019-06-08T10:32:28.871Z,21.9
2019-06-08T10:33:31.339Z,21.9
2019-06-08T10:34:33.262Z,21.9
2019-06-08T10:35:38.086Z,21.8
2019-06-08T10:36:41.172Z,22
2019-06-08T10:37:43.330Z,22
2019-06-08T10:39:50.476Z,21.8
2019-06-08T10:40:52.346Z,22
2019-06-08T10:41:54.773Z,22
2019-06-08T10:43:04.475Z,21.8
2019-06-08T10:45:18.325Z,21.9
2019-06-08T10:46:21.625Z,21.9
2019-06-08T10:47:23.793Z,21.9
2019-06-08T10:48:30.431Z,21.9
2019-06-08T10:49:32.785Z,21.9
2019-06-08T10:50:34.946Z,21.9
2019-06-08T10:52:42.373Z,22
2019-06-08T10:54:49.509Z,21.9
2019-06-08T10:55:51.959Z,22
2019-06-08T10:56:54.406Z,21.9
2019-06-08T10:58:02.266Z,21.9
2019-06-08T10:59:13.226Z,22
2019-06-08T11:01:21.049Z,21.7
2019-06-08T11:02:23.495Z,21.9
2019-06-08T11:03:25.661Z,21.9
2019-06-08T11:04:31.598Z,22
2019-06-08T11:05:33.215Z,21.8
2019-06-08T11:06:39.677Z,21.8
2019-06-08T11:07:40.843Z,21.9
2019-06-08T11:08:43.291Z,21.9
2019-06-08T11:09:48.119Z,21.9
2019-06-08T11:10:51.394Z,21.8
2019-06-08T11:11:55.133Z,22
2019-06-08T11:15:12.398Z,21.9
2019-06-08T11:16:17.652Z,21.9
2019-06-08T11:17:20.028Z,21.9
2019-06-08T11:18:22.209Z,21.8
2019-06-08T11:19:26.972Z,21.9
2019-06-08T11:20:30.954Z,21.8
2019-06-08T11:21:33.392Z,22
2019-06-08T11:22:35.838Z,21.9
2019-06-08T11:23:41.561Z,22
2019-06-08T11:24:44.872Z,21.9
2019-06-08T11:25:51.497Z,22.1
2019-06-08T11:26:53.649Z,21.9
2019-06-08T11:28:03.649Z,21.9
2019-06-08T11:31:20.360Z,21.9
2019-06-08T11:32:22.811Z,22
2019-06-08T11:33:25.245Z,21.9
2019-06-08T11:34:31.674Z,21.9
2019-06-08T11:35:33.845Z,21.9
2019-06-08T11:36:36.038Z,22
2019-06-08T11:37:41.981Z,22
2019-06-08T11:38:43.865Z,21.9
2019-06-08T11:39:50.767Z,21.9
2019-06-08T11:40:53.397Z,21.9
2019-06-08T11:41:55.276Z,21.9
2019-06-08T11:43:02.533Z,21.9
2019-06-08T11:45:14.576Z,21.9
2019-06-08T11:46:22.489Z,21.9
2019-06-08T11:47:27.699Z,22
2019-06-08T11:48:30.765Z,22
2019-06-08T11:49:33.192Z,21.9
2019-06-08T11:50:35.606Z,22
2019-06-08T11:51:41.545Z,22
2019-06-08T11:52:43.997Z,21.9
2019-06-08T11:54:51.638Z,21.9
2019-06-08T11:55:53.790Z,21.9
2019-06-08T11:56:58.088Z,21.9
2019-06-08T11:58:02.916Z,22
2019-06-08T11:59:10.632Z,21.9
2019-06-08T12:01:19.103Z,21.9
2019-06-08T12:02:21.528Z,21.9
2019-06-08T12:03:23.952Z,22
2019-06-08T12:04:30.878Z,21.9
2019-06-08T12:05:32.994Z,22
2019-06-08T12:06:37.522Z,22
2019-06-08T12:07:40.624Z,21.9
2019-06-08T12:08:42.872Z,22
2019-06-08T12:09:45.316Z,21.9
2019-06-08T12:10:51.426Z,21.9
2019-06-08T12:11:53.648Z,21.9
2019-06-08T12:12:57.878Z,21.8
2019-06-08T12:13:59.857Z,21.9
2019-06-08T12:15:04.566Z,21.8
2019-06-08T12:18:20.954Z,21.9
2019-06-08T12:19:23.097Z,22
2019-06-08T12:20:27.833Z,21.9
2019-06-08T12:21:30.992Z,22
2019-06-08T12:22:33.415Z,21.9
2019-06-08T12:23:35.850Z,21.9
2019-06-08T12:25:43.265Z,21.9
2019-06-08T12:28:55.409Z,21.9
2019-06-08T12:33:18.626Z,22
2019-06-08T12:34:21.767Z,22
2019-06-08T12:35:24.736Z,21.9
2019-06-08T12:36:31.020Z,22
2019-06-08T12:37:33.165Z,21.9
2019-06-08T12:38:37.913Z,22
2019-06-08T12:39:41.067Z,21.9
2019-06-08T12:40:43.504Z,21.9
2019-06-08T12:42:50.914Z,22
2019-06-08T12:43:53.514Z,21.9
2019-06-08T12:44:55.944Z,21.9
2019-06-08T12:46:01.355Z,22
2019-06-08T12:47:03.591Z,21.9
2019-06-08T12:48:08.724Z,21.9
2019-06-08T12:49:14.354Z,21.9
2019-06-08T12:50:20.628Z,21.9
2019-06-08T12:51:22.785Z,22
2019-06-08T12:52:29.342Z,21.9
2019-06-08T12:53:30.685Z,22
2019-06-08T12:54:33.126Z,22
2019-06-08T12:56:40.536Z,21.9
2019-06-08T12:57:42.965Z,21.9
2019-06-08T12:58:47.394Z,22
2019-06-08T12:59:50.587Z,21.9
2019-06-08T13:00:52.743Z,22
2019-06-08T13:01:55.174Z,21.9
2019-06-08T13:03:01.586Z,21.9
2019-06-08T13:04:04.018Z,22
2019-06-08T13:05:10.565Z,21.9
2019-06-08T13:06:14.016Z,21.9
2019-06-08T13:07:20.063Z,22
2019-06-08T13:08:22.374Z,21.8
2019-06-08T13:09:24.518Z,22
2019-06-08T13:10:30.965Z,21.9
2019-06-08T13:11:33.404Z,21.9
2019-06-08T13:12:35.559Z,21.9
2019-06-08T13:13:41.993Z,21.9
2019-06-08T13:14:44.447Z,21.9
2019-06-08T13:15:50.860Z,21.9
2019-06-08T13:16:53.753Z,21.9
2019-06-08T13:17:58.214Z,22
2019-06-08T13:19:01.395Z,21.8
2019-06-08T13:20:03.859Z,22
2019-06-08T13:22:16.907Z,22
2019-06-08T13:23:21.884Z,22
2019-06-08T13:24:24.332Z,21.9
2019-06-08T13:26:31.456Z,21.9
2019-06-08T13:27:33.876Z,22
2019-06-08T13:28:38.394Z,21.9
2019-06-08T13:29:41.510Z,21.9
2019-06-08T13:30:43.405Z,21.9
2019-06-08T13:31:45.839Z,22
2019-06-08T13:32:48.835Z,22
2019-06-08T13:33:51.264Z,22
2019-06-08T13:34:53.433Z,21.9
2019-06-08T13:36:00.518Z,22
2019-06-08T13:37:02.759Z,22
2019-06-08T13:38:05.180Z,22
2019-06-08T13:39:13.218Z,21.9
2019-06-08T13:42:30.854Z,21.9
2019-06-08T13:43:33.271Z,21.9
2019-06-08T13:44:37.675Z,22
2019-06-08T13:45:40.614Z,21.9
2019-06-08T13:46:42.772Z,22
2019-06-08T13:47:44.941Z,22
2019-06-08T13:48:51.095Z,21.9
2019-06-08T13:49:53.541Z,22
2019-06-08T13:50:55.977Z,21.9
2019-06-08T13:52:01.915Z,21.9
2019-06-08T13:53:04.080Z,21.9
2019-06-08T13:55:12.769Z,22
2019-06-08T13:57:25.526Z,22
2019-06-08T13:59:32.941Z,22
2019-06-08T14:00:35.121Z,22
2019-06-08T14:01:41.293Z,22
2019-06-08T14:02:43.756Z,21.9
2019-06-08T14:04:50.633Z,21.9
2019-06-08T14:05:53.063Z,22
2019-06-08T14:06:57.677Z,21.9
2019-06-08T14:08:00.973Z,21.9
2019-06-08T14:09:03.404Z,21.9
2019-06-08T14:10:05.571Z,22
2019-06-08T14:11:08.836Z,22
2019-06-08T14:12:11.360Z,21.9
2019-06-08T14:13:14.942Z,21.9
2019-06-08T14:14:24.266Z,21.8
2019-06-08T14:15:32.072Z,22
2019-06-08T14:16:38.863Z,21.9
2019-06-08T14:17:41.741Z,22.1
2019-06-08T14:18:44.099Z,21.9
2019-06-08T14:21:56.493Z,22
2019-06-08T14:22:59.449Z,22
2019-06-08T14:24:01.899Z,21.9
2019-06-08T14:25:04.360Z,22
2019-06-08T14:26:08.751Z,22
2019-06-08T14:27:10.653Z,22
2019-06-08T14:28:12.792Z,22
2019-06-08T14:29:18.380Z,22
2019-06-08T14:30:23.786Z,22
2019-06-08T14:32:35.213Z,22
2019-06-08T14:33:41.357Z,22
2019-06-08T14:34:43.503Z,22
2019-06-08T14:35:45.833Z,22
2019-06-08T14:36:50.755Z,22
2019-06-08T14:37:52.323Z,21.9
2019-06-08T14:38:54.755Z,21.9
2019-06-08T14:40:01.653Z,22
2019-06-08T14:41:04.134Z,21.9
2019-06-08T14:42:10.557Z,21.9
2019-06-08T14:43:13.735Z,21.9
2019-06-08T14:44:18.303Z,22
2019-06-08T14:45:22.517Z,22
2019-06-08T14:46:26.009Z,22
2019-06-08T14:47:30.883Z,22
2019-06-08T14:48:34.541Z,21.9
2019-06-08T14:49:40.481Z,21.9
2019-06-08T14:50:43.698Z,21.9
2019-06-08T14:51:48.370Z,22
2019-06-08T14:52:51.043Z,22
2019-06-08T14:53:53.202Z,22
2019-06-08T14:54:58.413Z,21.9
2019-06-08T14:57:08.442Z,21.9
2019-06-08T14:58:10.874Z,21.9
2019-06-08T14:59:13.300Z,22
2019-06-08T15:00:15.468Z,21.9
2019-06-08T15:01:24.445Z,22
2019-06-08T15:02:31.712Z,22
2019-06-08T15:03:33.627Z,22.1
2019-06-08T15:04:39.930Z,22
2019-06-08T15:05:42.593Z,21.9
2019-06-08T15:06:44.954Z,22
2019-06-08T15:07:51.361Z,22.1
2019-06-08T15:08:53.821Z,22
2019-06-08T15:11:01.238Z,22
2019-06-08T15:12:03.446Z,22
2019-06-08T15:14:10.615Z,21.9
2019-06-08T15:15:13.057Z,22
2019-06-08T15:16:18.004Z,22
2019-06-08T15:17:22.319Z,22
2019-06-08T15:18:31.986Z,21.9
2019-06-08T15:19:34.615Z,22.1
2019-06-08T15:20:38.525Z,22
2019-06-08T15:21:40.971Z,22
2019-06-08T15:22:43.398Z,21.9
2019-06-08T15:23:48.054Z,22
2019-06-08T15:24:50.497Z,22
2019-06-08T15:25:53.147Z,21.9
2019-06-08T15:26:58.151Z,22
2019-06-08T15:28:01.949Z,22
2019-06-08T15:29:04.390Z,22
2019-06-08T15:30:08.950Z,22
2019-06-08T15:31:11.394Z,22
2019-06-08T15:32:13.853Z,22
2019-06-08T15:33:18.104Z,21.9
2019-06-08T15:34:23.186Z,22
2019-06-08T15:35:31.885Z,22
2019-06-08T15:36:34.261Z,22
2019-06-08T15:37:41.557Z,22
2019-06-08T15:38:44.012Z,21.9
2019-06-08T15:39:52.231Z,21.9
2019-06-08T15:40:54.107Z,22
2019-06-08T15:42:00.737Z,22
2019-06-08T15:43:03.173Z,21.9
2019-06-08T15:44:05.317Z,21.9